sensor_id;sensor_type;location;lat;lon;timestamp;pressure;altitude;pressure_sealevel;temperature;humidity
20105;BME280;10212;42.714;23.310;2024-02-16T00:07:28;95752.50;;;0.10;92.25
20105;BME280;10212;42.714;23.310;2024-02-16T00:17:29;95752.88;;;-0.06;92.77
20105;BME280;10212;42.714;23.310;2024-02-16T00:27:29;95755.25;;;-0.26;93.61
20105;BME280;10212;42.714;23.310;2024-02-16T00:37:30;95750.16;;;-0.38;94.25
20105;BME280;10212;42.714;23.310;2024-02-16T00:47:30;95754.19;;;-0.35;94.75
20105;BME280;10212;42.714;23.310;2024-02-16T00:57:31;95751.41;;;-0.32;94.13
20105;BME280;10212;42.714;23.310;2024-02-16T01:07:31;95753.28;;;-0.45;94.38
20105;BME280;10212;42.714;23.310;2024-02-16T01:17:32;95749.34;;;-0.50;95.08
20105;BME280;10212;42.714;23.310;2024-02-16T01:27:32;95746.19;;;-0.65;96.12
20105;BME280;10212;42.714;23.310;2024-02-16T01:37:33;95741.28;;;-0.68;97.13
20105;BME280;10212;42.714;23.310;2024-02-16T01:47:33;95733.63;;;-0.68;96.77
20105;BME280;10212;42.714;23.310;2024-02-16T01:57:34;95731.63;;;-0.87;97.78
20105;BME280;10212;42.714;23.310;2024-02-16T02:07:34;95736.03;;;-0.78;97.04
20105;BME280;10212;42.714;23.310;2024-02-16T02:17:35;95744.41;;;-0.99;98.66
20105;BME280;10212;42.714;23.310;2024-02-16T02:27:36;95741.53;;;-1.41;100.00
20105;BME280;10212;42.714;23.310;2024-02-16T02:37:36;95739.84;;;-1.18;99.93
20105;BME280;10212;42.714;23.310;2024-02-16T02:47:37;95736.72;;;-1.10;100.00
20105;BME280;10212;42.714;23.310;2024-02-16T02:57:37;95736.38;;;-1.05;99.64
20105;BME280;10212;42.714;23.310;2024-02-16T03:07:37;95736.59;;;-0.97;99.21
20105;BME280;10212;42.714;23.310;2024-02-16T03:17:38;95740.94;;;-0.98;98.59
20105;BME280;10212;42.714;23.310;2024-02-16T03:27:40;95737.88;;;-1.14;98.52
20105;BME280;10212;42.714;23.310;2024-02-16T03:38:08;95746.44;;;-1.27;97.59
20105;BME280;10212;42.714;23.310;2024-02-16T03:48:36;95735.72;;;-1.43;98.30
20105;BME280;10212;42.714;23.310;2024-02-16T03:58:52;95746.56;;;-1.40;98.28
20105;BME280;10212;42.714;23.310;2024-02-16T04:09:00;95739.00;;;-1.30;98.27
20105;BME280;10212;42.714;23.310;2024-02-16T04:19:10;95739.88;;;-1.54;99.13
20105;BME280;10212;42.714;23.310;2024-02-16T04:29:11;95740.13;;;-1.46;99.01
20105;BME280;10212;42.714;23.310;2024-02-16T04:39:11;95746.09;;;-1.34;98.47
20105;BME280;10212;42.714;23.310;2024-02-16T04:49:14;95756.19;;;-1.43;99.46
20105;BME280;10212;42.714;23.310;2024-02-16T04:59:16;95759.72;;;-1.33;98.73
20105;BME280;10212;42.714;23.310;2024-02-16T05:09:16;95764.03;;;-1.58;100.00
20105;BME280;10212;42.714;23.310;2024-02-16T05:19:17;95778.53;;;-1.70;100.00
20105;BME280;10212;42.714;23.310;2024-02-16T05:29:17;95783.31;;;-1.65;100.00
20105;BME280;10212;42.714;23.310;2024-02-16T05:39:17;95797.31;;;-1.71;100.00
20105;BME280;10212;42.714;23.310;2024-02-16T05:49:26;95803.91;;;-1.80;100.00
20105;BME280;10212;42.714;23.310;2024-02-16T05:59:26;95809.84;;;-1.55;100.00
20105;BME280;10212;42.714;23.310;2024-02-16T06:09:27;95807.97;;;-1.28;100.00
20105;BME280;10212;42.714;23.310;2024-02-16T06:19:33;95806.69;;;-1.34;100.00
20105;BME280;10212;42.714;23.310;2024-02-16T06:29:34;95804.72;;;-0.83;100.00
20105;BME280;10212;42.714;23.310;2024-02-16T06:39:35;95806.38;;;-0.25;96.29
20105;BME280;10212;42.714;23.310;2024-02-16T06:49:35;95805.47;;;-0.23;95.98
20105;BME280;10212;42.714;23.310;2024-02-16T06:59:35;95803.66;;;0.11;93.96
20105;BME280;10212;42.714;23.310;2024-02-16T07:09:36;95809.91;;;0.42;92.83
20105;BME280;10212;42.714;23.310;2024-02-16T07:19:36;95805.09;;;0.48;90.61
20105;BME280;10212;42.714;23.310;2024-02-16T07:29:37;95801.78;;;1.12;88.25
20105;BME280;10212;42.714;23.310;2024-02-16T07:39:39;95807.06;;;1.42;85.73
20105;BME280;10212;42.714;23.310;2024-02-16T07:49:40;95803.47;;;1.86;84.29
20105;BME280;10212;42.714;23.310;2024-02-16T07:59:41;95813.44;;;2.20;80.48
20105;BME280;10212;42.714;23.310;2024-02-16T08:09:48;95815.88;;;2.22;81.30
20105;BME280;10212;42.714;23.310;2024-02-16T08:19:53;95807.94;;;2.74;79.38
20105;BME280;10212;42.714;23.310;2024-02-16T08:29:54;95815.91;;;3.01;78.62
20105;BME280;10212;42.714;23.310;2024-02-16T08:39:54;95815.06;;;3.20;77.98
20105;BME280;10212;42.714;23.310;2024-02-16T08:49:55;95803.56;;;3.72;76.58
20105;BME280;10212;42.714;23.310;2024-02-16T08:59:55;95815.59;;;4.10;76.07
20105;BME280;10212;42.714;23.310;2024-02-16T09:09:56;95813.75;;;4.67;73.03
20105;BME280;10212;42.714;23.310;2024-02-16T09:19:57;95812.50;;;4.89;72.14
20105;BME280;10212;42.714;23.310;2024-02-16T09:29:57;95804.31;;;5.47;69.60
20105;BME280;10212;42.714;23.310;2024-02-16T09:39:57;95807.34;;;6.04;68.19
20105;BME280;10212;42.714;23.310;2024-02-16T09:49:58;95801.19;;;6.40;67.00
20105;BME280;10212;42.714;23.310;2024-02-16T09:59:58;95791.16;;;6.62;66.19
20105;BME280;10212;42.714;23.310;2024-02-16T10:09:59;95773.03;;;7.04;64.02
20105;BME280;10212;42.714;23.310;2024-02-16T10:20:00;95758.72;;;7.24;63.82
20105;BME280;10212;42.714;23.310;2024-02-16T10:30:07;95749.25;;;7.57;62.94
20105;BME280;10212;42.714;23.310;2024-02-16T10:40:11;95742.69;;;7.78;61.92
20105;BME280;10212;42.714;23.310;2024-02-16T10:50:13;95737.38;;;7.71;62.10
20105;BME280;10212;42.714;23.310;2024-02-16T11:00:15;95726.06;;;7.87;61.69
20105;BME280;10212;42.714;23.310;2024-02-16T11:10:17;95716.56;;;8.35;60.52
20105;BME280;10212;42.714;23.310;2024-02-16T11:20:17;95707.06;;;8.42;60.22
20105;BME280;10212;42.714;23.310;2024-02-16T11:30:19;95700.81;;;8.36;59.90
20105;BME280;10212;42.714;23.310;2024-02-16T11:40:20;95689.63;;;8.51;58.89
20105;BME280;10212;42.714;23.310;2024-02-16T11:50:20;95686.06;;;8.75;56.73
20105;BME280;10212;42.714;23.310;2024-02-16T12:00:21;95681.19;;;8.72;56.82
20105;BME280;10212;42.714;23.310;2024-02-16T12:10:21;95670.22;;;8.85;57.54
20105;BME280;10212;42.714;23.310;2024-02-16T12:20:21;95665.09;;;8.92;57.79
20105;BME280;10212;42.714;23.310;2024-02-16T12:30:22;95651.22;;;9.00;57.86
20105;BME280;10212;42.714;23.310;2024-02-16T12:40:22;95654.25;;;9.19;57.09
20105;BME280;10212;42.714;23.310;2024-02-16T12:50:23;95641.63;;;9.15;57.71
20105;BME280;10212;42.714;23.310;2024-02-16T13:00:23;95642.66;;;9.36;55.57
20105;BME280;10212;42.714;23.310;2024-02-16T13:10:24;95644.59;;;9.12;56.10
20105;BME280;10212;42.714;23.310;2024-02-16T13:20:24;95641.06;;;9.20;57.02
20105;BME280;10212;42.714;23.310;2024-02-16T13:30:25;95622.66;;;9.22;57.10
20105;BME280;10212;42.714;23.310;2024-02-16T13:40:27;95628.94;;;9.43;57.42
20105;BME280;10212;42.714;23.310;2024-02-16T13:50:28;95629.66;;;9.36;58.30
20105;BME280;10212;42.714;23.310;2024-02-16T14:00:28;95632.88;;;9.38;59.21
20105;BME280;10212;42.714;23.310;2024-02-16T14:10:29;95634.41;;;9.48;59.41
20105;BME280;10212;42.714;23.310;2024-02-16T14:20:29;95623.94;;;9.26;59.98
20105;BME280;10212;42.714;23.310;2024-02-16T14:30:30;95632.34;;;9.43;59.32
20105;BME280;10212;42.714;23.310;2024-02-16T14:40:32;95637.34;;;9.45;59.39
20105;BME280;10212;42.714;23.310;2024-02-16T14:50:33;95648.06;;;9.35;58.27
20105;BME280;10212;42.714;23.310;2024-02-16T15:00:35;95648.16;;;9.26;58.69
20105;BME280;10212;42.714;23.310;2024-02-16T15:10:36;95660.09;;;9.21;58.82
20105;BME280;10212;42.714;23.310;2024-02-16T15:20:36;95668.88;;;9.04;59.46
20105;BME280;10212;42.714;23.310;2024-02-16T15:30:36;95670.84;;;8.87;60.51
20105;BME280;10212;42.714;23.310;2024-02-16T15:40:37;95680.50;;;8.55;61.69
20105;BME280;10212;42.714;23.310;2024-02-16T15:50:38;95690.56;;;8.11;63.56
20105;BME280;10212;42.714;23.310;2024-02-16T16:00:41;95696.75;;;7.78;65.09
20105;BME280;10212;42.714;23.310;2024-02-16T16:10:42;95707.13;;;7.38;66.85
20105;BME280;10212;42.714;23.310;2024-02-16T16:20:42;95714.66;;;7.16;67.53
20105;BME280;10212;42.714;23.310;2024-02-16T16:30:44;95718.56;;;6.95;69.11
20105;BME280;10212;42.714;23.310;2024-02-16T16:40:44;95734.47;;;6.75;69.54
20105;BME280;10212;42.714;23.310;2024-02-16T16:50:44;95742.25;;;6.84;72.00
20105;BME280;10212;42.714;23.310;2024-02-16T17:00:45;95747.59;;;6.82;70.47
20105;BME280;10212;42.714;23.310;2024-02-16T17:10:45;95756.16;;;6.49;71.98
20105;BME280;10212;42.714;23.310;2024-02-16T17:20:46;95772.06;;;6.03;74.33
20105;BME280;10212;42.714;23.310;2024-02-16T17:30:47;95779.25;;;5.74;75.33
20105;BME280;10212;42.714;23.310;2024-02-16T17:40:48;95780.78;;;5.59;76.54
20105;BME280;10212;42.714;23.310;2024-02-16T17:50:48;95789.13;;;5.44;77.71
20105;BME280;10212;42.714;23.310;2024-02-16T18:00:49;95798.94;;;5.40;78.40
20105;BME280;10212;42.714;23.310;2024-02-16T18:10:50;95802.38;;;5.41;78.32
20105;BME280;10212;42.714;23.310;2024-02-16T18:20:52;95806.25;;;5.45;78.47
20105;BME280;10212;42.714;23.310;2024-02-16T18:30:52;95807.78;;;5.29;78.16
20105;BME280;10212;42.714;23.310;2024-02-16T18:40:53;95805.53;;;5.08;78.67
20105;BME280;10212;42.714;23.310;2024-02-16T18:50:53;95798.53;;;5.00;79.36
20105;BME280;10212;42.714;23.310;2024-02-16T19:00:54;95816.53;;;4.92;79.74
20105;BME280;10212;42.714;23.310;2024-02-16T19:10:54;95818.34;;;4.73;80.26
20105;BME280;10212;42.714;23.310;2024-02-16T19:20:56;95826.00;;;4.46;81.85
20105;BME280;10212;42.714;23.310;2024-02-16T19:30:57;95828.53;;;4.28;82.91
20105;BME280;10212;42.714;23.310;2024-02-16T19:40:58;95838.03;;;4.09;83.87
20105;BME280;10212;42.714;23.310;2024-02-16T19:50:58;95845.28;;;3.96;84.74
20105;BME280;10212;42.714;23.310;2024-02-16T20:00:59;95848.72;;;3.86;85.29
20105;BME280;10212;42.714;23.310;2024-02-16T20:10:59;95851.44;;;3.75;85.90
20105;BME280;10212;42.714;23.310;2024-02-16T20:21:01;95856.13;;;3.61;86.87
20105;BME280;10212;42.714;23.310;2024-02-16T20:31:01;95865.06;;;3.57;87.44
20105;BME280;10212;42.714;23.310;2024-02-16T20:41:05;95857.97;;;3.21;89.44
20105;BME280;10212;42.714;23.310;2024-02-16T20:51:06;95860.00;;;3.18;90.75
20105;BME280;10212;42.714;23.310;2024-02-16T21:01:08;95858.09;;;3.10;91.33
20105;BME280;10212;42.714;23.310;2024-02-16T21:11:08;95867.84;;;3.06;91.73
20105;BME280;10212;42.714;23.310;2024-02-16T21:21:10;95870.31;;;2.88;92.94
20105;BME280;10212;42.714;23.310;2024-02-16T21:31:11;95869.88;;;2.73;94.07
20105;BME280;10212;42.714;23.310;2024-02-16T21:41:11;95878.22;;;2.35;96.32
20105;BME280;10212;42.714;23.310;2024-02-16T21:51:13;95900.03;;;2.31;96.29
20105;BME280;10212;42.714;23.310;2024-02-16T22:01:13;95888.00;;;2.00;97.52
20105;BME280;10212;42.714;23.310;2024-02-16T22:11:15;95895.00;;;1.98;97.50
20105;BME280;10212;42.714;23.310;2024-02-16T22:21:16;95897.88;;;1.74;99.80
20105;BME280;10212;42.714;23.310;2024-02-16T22:31:16;95903.41;;;1.90;99.01
20105;BME280;10212;42.714;23.310;2024-02-16T22:41:19;95897.66;;;1.77;98.64
20105;BME280;10212;42.714;23.310;2024-02-16T22:51:19;95904.03;;;1.61;100.00
20105;BME280;10212;42.714;23.310;2024-02-16T23:01:20;95897.28;;;1.60;99.96
20105;BME280;10212;42.714;23.310;2024-02-16T23:11:20;95896.69;;;1.78;99.75
20105;BME280;10212;42.714;23.310;2024-02-16T23:21:21;95900.72;;;1.71;99.52
20105;BME280;10212;42.714;23.310;2024-02-16T23:31:21;95903.28;;;1.71;98.85
20105;BME280;10212;42.714;23.310;2024-02-16T23:41:25;95914.66;;;1.68;97.97
20105;BME280;10212;42.714;23.310;2024-02-16T23:51:25;95913.69;;;1.48;98.35
